createdAt,value
2018-08-20T00:01:34.028Z,4.70
2018-08-20T00:04:03.869Z,5.10
2018-08-20T00:06:43.970Z,5.13
2018-08-20T00:09:12.459Z,4.73
2018-08-20T00:11:40.932Z,4.87
2018-08-20T00:14:09.415Z,5.37
2018-08-20T00:16:37.876Z,4.63
2018-08-20T00:19:06.438Z,4.90
2018-08-20T00:21:34.904Z,5.17
2018-08-20T00:24:03.393Z,5.23
2018-08-20T00:26:31.913Z,5.40
2018-08-20T00:29:00.383Z,5.10
2018-08-20T00:31:28.890Z,5.60
2018-08-20T00:33:57.401Z,4.97
2018-08-20T00:36:25.879Z,5.63
2018-08-20T00:38:54.414Z,5.10
2018-08-20T00:41:22.847Z,5.20
2018-08-20T00:43:51.346Z,4.97
2018-08-20T00:46:19.819Z,4.87
2018-08-20T00:48:48.551Z,5.00
2018-08-20T00:51:17.030Z,4.60
2018-08-20T00:53:45.517Z,5.40
2018-08-20T00:56:14.044Z,5.13
2018-08-20T00:58:42.488Z,5.07
2018-08-20T01:01:10.952Z,5.30
2018-08-20T01:03:39.446Z,5.13
2018-08-20T01:06:07.961Z,5.53
2018-08-20T01:08:36.515Z,5.00
2018-08-20T01:11:04.963Z,5.37
2018-08-20T01:13:33.432Z,5.10
2018-08-20T01:16:01.901Z,5.60
2018-08-20T01:18:30.512Z,5.47
2018-08-20T01:20:59.006Z,5.47
2018-08-20T01:23:27.467Z,5.53
2018-08-20T01:25:56.007Z,5.53
2018-08-20T01:28:24.505Z,5.70
2018-08-20T01:30:53.026Z,6.07
2018-08-20T01:33:21.773Z,5.80
2018-08-20T01:35:50.545Z,5.53
2018-08-20T01:38:19.025Z,6.10
2018-08-20T01:40:47.555Z,6.10
2018-08-20T01:43:16.051Z,5.70
2018-08-20T01:45:44.573Z,5.47
2018-08-20T01:48:13.122Z,6.23
2018-08-20T01:50:41.658Z,6.37
2018-08-20T01:53:10.117Z,6.50
2018-08-20T01:55:38.593Z,6.20
2018-08-20T01:58:07.118Z,6.10
2018-08-20T02:00:35.654Z,6.53
2018-08-20T02:03:04.648Z,5.90
2018-08-20T02:05:33.262Z,6.23
2018-08-20T02:08:02.150Z,5.70
2018-08-20T02:10:30.855Z,6.37
2018-08-20T02:12:59.357Z,6.30
2018-08-20T02:15:27.867Z,6.27
2018-08-20T02:17:56.400Z,6.23
2018-08-20T02:20:24.863Z,6.23
2018-08-20T02:22:53.352Z,6.27
2018-08-20T02:25:21.829Z,6.80
2018-08-20T02:27:50.309Z,6.87
2018-08-20T02:30:18.762Z,6.40
2018-08-20T02:32:47.277Z,6.60
2018-08-20T02:35:15.759Z,7.17
2018-08-20T02:37:45.766Z,7.43
2018-08-20T02:40:15.039Z,7.07
2018-08-20T02:42:43.587Z,6.90
2018-08-20T02:45:14.654Z,6.73
2018-08-20T02:47:43.696Z,7.30
2018-08-20T02:50:12.866Z,7.63
2018-08-20T02:52:41.969Z,7.30
2018-08-20T02:55:10.509Z,6.50
2018-08-20T02:57:39.360Z,6.83
2018-08-20T03:00:10.748Z,7.27
2018-08-20T03:02:39.263Z,6.70
2018-08-20T03:05:08.336Z,6.70
2018-08-20T03:07:36.850Z,6.37
2018-08-20T03:10:07.435Z,6.70
2018-08-20T03:12:36.059Z,6.37
2018-08-20T03:15:05.416Z,6.10
2018-08-20T03:17:33.926Z,6.33
2018-08-20T03:20:02.581Z,6.87
2018-08-20T03:22:31.075Z,7.97
2018-08-20T03:24:59.631Z,7.27
2018-08-20T03:27:28.083Z,7.17
2018-08-20T03:29:56.684Z,7.30
2018-08-20T03:32:25.147Z,6.30
2018-08-20T03:34:53.627Z,6.80
2018-08-20T03:37:22.143Z,6.20
2018-08-20T03:39:50.677Z,6.57
2018-08-20T03:42:19.137Z,7.17
2018-08-20T03:44:47.647Z,7.00
2018-08-20T03:47:16.094Z,7.00
2018-08-20T03:49:44.597Z,7.33
2018-08-20T03:52:13.065Z,7.20
2018-08-20T03:54:41.566Z,7.13
2018-08-20T03:57:10.025Z,6.70
2018-08-20T03:59:38.521Z,7.47
2018-08-20T04:02:07.962Z,7.20
2018-08-20T04:04:36.429Z,7.27
2018-08-20T04:07:06.482Z,7.07
2018-08-20T04:09:35.432Z,7.73
2018-08-20T04:12:04.648Z,7.60
2018-08-20T04:14:33.168Z,8.27
2018-08-20T04:17:01.703Z,8.67
2018-08-20T04:19:30.574Z,8.07
2018-08-20T04:21:59.063Z,8.13
2018-08-20T04:24:27.684Z,8.97
2018-08-20T04:26:56.149Z,8.23
2018-08-20T04:29:24.626Z,9.00
2018-08-20T04:31:53.105Z,8.07
2018-08-20T04:34:21.618Z,7.50
2018-08-20T04:36:50.098Z,8.90
2018-08-20T04:39:18.693Z,9.70
2018-08-20T04:41:47.150Z,8.50
2018-08-20T04:44:15.713Z,8.77
2018-08-20T04:46:44.216Z,8.20
2018-08-20T04:49:12.685Z,8.17
2018-08-20T04:51:41.238Z,8.40
2018-08-20T04:54:09.727Z,8.97
2018-08-20T04:56:38.191Z,7.63
2018-08-20T04:59:06.632Z,8.90
2018-08-20T05:01:35.115Z,9.77
2018-08-20T05:04:03.633Z,9.60
2018-08-20T05:06:32.112Z,9.23
2018-08-20T05:09:00.538Z,8.10
2018-08-20T05:11:29.004Z,8.40
2018-08-20T05:13:57.444Z,8.37
2018-08-20T05:16:25.923Z,9.33
2018-08-20T05:18:54.560Z,8.33
2018-08-20T05:21:22.882Z,8.10
2018-08-20T05:23:51.342Z,9.10
2018-08-20T05:26:20.445Z,9.10
2018-08-20T05:28:48.998Z,8.57
2018-08-20T05:31:18.083Z,7.93
2018-08-20T05:33:46.569Z,8.03
2018-08-20T05:36:15.398Z,8.27
2018-08-20T05:38:43.993Z,8.23
2018-08-20T05:41:13.711Z,8.27
2018-08-20T05:43:42.177Z,7.83
2018-08-20T05:46:10.654Z,8.47
2018-08-20T05:48:39.763Z,8.00
2018-08-20T05:51:08.202Z,9.03
2018-08-20T05:53:36.687Z,9.00
2018-08-20T05:56:05.137Z,7.67
2018-08-20T05:58:33.646Z,8.27
2018-08-20T06:01:02.157Z,8.33
2018-08-20T06:03:30.650Z,8.07
2018-08-20T06:05:59.133Z,7.70
2018-08-20T06:08:27.616Z,7.57
2018-08-20T06:10:56.124Z,6.97
2018-08-20T06:13:24.582Z,7.27
2018-08-20T06:15:53.068Z,7.27
2018-08-20T06:18:21.498Z,6.57
2018-08-20T06:20:49.978Z,6.73
2018-08-20T06:23:18.449Z,6.37
2018-08-20T06:25:46.979Z,7.00
2018-08-20T06:28:15.404Z,6.70
2018-08-20T06:30:43.887Z,6.37
2018-08-20T06:33:12.334Z,6.70
2018-08-20T06:35:42.660Z,6.30
2018-08-20T06:38:11.114Z,6.40
2018-08-20T06:40:39.530Z,5.20
2018-08-20T06:43:08.080Z,4.87
2018-08-20T06:45:36.554Z,5.37
2018-08-20T06:48:05.061Z,5.30
2018-08-20T06:50:33.662Z,5.30
2018-08-20T06:53:02.148Z,5.50
2018-08-20T06:55:30.694Z,5.77
2018-08-20T06:58:02.087Z,5.40
2018-08-20T07:00:31.818Z,5.17
2018-08-20T07:03:00.297Z,4.97
2018-08-20T07:05:28.822Z,5.00
2018-08-20T07:07:57.281Z,5.17
2018-08-20T07:10:26.765Z,5.20
2018-08-20T07:12:55.346Z,5.20
2018-08-20T07:15:23.817Z,5.07
2018-08-20T07:17:52.290Z,5.30
2018-08-20T07:20:20.726Z,4.77
2018-08-20T07:22:49.263Z,5.33
2018-08-20T07:25:17.699Z,5.13
2018-08-20T07:27:46.168Z,5.60
2018-08-20T07:30:14.612Z,4.73
2018-08-20T07:32:43.118Z,4.77
2018-08-20T07:35:11.729Z,5.90
2018-08-20T07:37:40.497Z,5.03
2018-08-20T07:40:09.407Z,5.60
2018-08-20T07:42:38.226Z,4.80
2018-08-20T07:45:06.685Z,4.77
2018-08-20T07:47:35.163Z,4.80
2018-08-20T07:50:03.675Z,5.10
2018-08-20T07:52:32.145Z,5.10
2018-08-20T07:55:00.658Z,5.13
2018-08-20T07:57:29.178Z,4.67
2018-08-20T07:59:57.615Z,4.63
2018-08-20T08:02:26.084Z,5.23
2018-08-20T08:04:54.595Z,4.83
2018-08-20T08:07:23.117Z,4.90
2018-08-20T08:09:51.574Z,5.00
2018-08-20T08:12:20.084Z,4.87
2018-08-20T08:14:48.608Z,4.57
2018-08-20T08:17:17.041Z,4.90
2018-08-20T08:19:45.588Z,4.97
2018-08-20T08:22:14.081Z,4.87
2018-08-20T08:24:42.592Z,5.20
2018-08-20T08:27:11.131Z,5.00
2018-08-20T08:29:39.655Z,5.00
2018-08-20T08:32:08.191Z,4.80
2018-08-20T08:34:36.653Z,5.03
2018-08-20T08:37:05.214Z,4.55
2018-08-20T08:39:51.380Z,4.17
2018-08-20T08:42:19.907Z,4.40
2018-08-20T08:44:48.393Z,4.45
2018-08-20T08:47:16.966Z,4.75
2018-08-20T08:49:45.518Z,4.40
2018-08-20T08:52:14.002Z,4.47
2018-08-20T08:54:42.542Z,4.47
2018-08-20T08:57:11.001Z,4.08
2018-08-20T08:59:39.510Z,4.37
2018-08-20T09:02:08.063Z,4.22
2018-08-20T09:04:36.539Z,4.20
2018-08-20T09:07:05.204Z,4.60
2018-08-20T09:09:33.812Z,4.58
2018-08-20T09:12:02.302Z,4.75
2018-08-20T09:14:30.900Z,4.40
2018-08-20T09:16:59.409Z,4.50
2018-08-20T09:19:27.879Z,4.60
2018-08-20T09:21:56.338Z,4.30
2018-08-20T09:24:24.900Z,4.22
2018-08-20T09:26:54.522Z,4.90
2018-08-20T09:29:23.390Z,4.50
2018-08-20T09:31:52.607Z,4.72
2018-08-20T09:34:21.133Z,5.15
2018-08-20T09:36:49.581Z,4.85
2018-08-20T09:39:18.076Z,4.87
2018-08-20T09:41:46.574Z,5.00
2018-08-20T09:44:15.043Z,4.15
2018-08-20T09:46:43.601Z,4.78
2018-08-20T09:49:12.125Z,5.00
2018-08-20T09:51:40.754Z,4.80
2018-08-20T09:54:09.384Z,5.03
2018-08-20T09:56:37.926Z,4.75
2018-08-20T09:59:06.742Z,4.75
2018-08-20T10:01:35.265Z,5.10
2018-08-20T10:04:04.331Z,4.50
2018-08-20T10:06:32.842Z,5.00
2018-08-20T10:09:01.469Z,4.83
2018-08-20T10:11:30.117Z,4.90
2018-08-20T10:13:58.767Z,4.62
2018-08-20T10:16:27.281Z,4.30
2018-08-20T10:18:55.775Z,5.05
2018-08-20T10:21:24.381Z,4.67
2018-08-20T10:23:52.859Z,4.40
2018-08-20T10:26:21.353Z,5.17
2018-08-20T10:28:49.868Z,4.53
2018-08-20T10:31:18.343Z,4.40
2018-08-20T10:33:46.783Z,4.65
2018-08-20T10:36:15.248Z,4.62
2018-08-20T10:38:43.710Z,5.12
2018-08-20T10:41:12.228Z,4.92
2018-08-20T10:43:40.771Z,4.83
2018-08-20T10:46:14.592Z,4.72
2018-08-20T10:48:43.082Z,4.75
2018-08-20T10:51:11.580Z,5.33
2018-08-20T10:53:40.015Z,4.53
2018-08-20T10:56:08.580Z,5.03
2018-08-20T10:58:37.211Z,5.10
2018-08-20T11:01:06.232Z,4.42
2018-08-20T11:03:34.785Z,4.47
2018-08-20T11:06:03.325Z,4.62
2018-08-20T11:08:31.818Z,4.12
2018-08-20T11:11:00.406Z,4.92
2018-08-20T11:13:28.841Z,4.60
2018-08-20T11:15:57.333Z,4.35
2018-08-20T11:18:25.875Z,4.55
2018-08-20T11:20:54.399Z,4.55
2018-08-20T11:23:22.866Z,4.70
2018-08-20T11:25:51.334Z,4.70
2018-08-20T11:28:19.880Z,4.95
2018-08-20T11:30:48.373Z,4.45
2018-08-20T11:33:16.858Z,3.92
2018-08-20T11:35:45.318Z,4.72
2018-08-20T11:38:13.826Z,4.58
2018-08-20T11:40:42.331Z,4.97
2018-08-20T11:43:10.909Z,4.87
2018-08-20T11:45:39.425Z,4.58
2018-08-20T11:48:08.109Z,4.35
2018-08-20T11:50:36.583Z,4.37
2018-08-20T11:53:05.281Z,4.00
2018-08-20T11:55:33.782Z,4.37
2018-08-20T11:58:02.355Z,4.95
2018-08-20T12:00:30.845Z,4.35
2018-08-20T12:02:59.345Z,4.20
2018-08-20T12:05:27.862Z,4.35
2018-08-20T12:07:56.361Z,4.95
2018-08-20T12:10:24.883Z,4.60
2018-08-20T12:12:53.434Z,3.98
2018-08-20T12:15:21.981Z,4.30
2018-08-20T12:17:50.453Z,4.45
2018-08-20T12:20:18.911Z,4.42
2018-08-20T12:22:47.873Z,4.50
2018-08-20T12:25:16.472Z,4.15
2018-08-20T12:27:45.442Z,4.53
2018-08-20T12:30:14.368Z,4.45
2018-08-20T12:32:43.667Z,4.35
2018-08-20T12:35:12.183Z,4.30
2018-08-20T12:37:41.217Z,4.25
2018-08-20T12:40:09.798Z,4.53
2018-08-20T12:42:38.271Z,3.92
2018-08-20T12:45:07.037Z,4.20
2018-08-20T12:47:35.484Z,4.30
2018-08-20T12:50:04.152Z,3.95
2018-08-20T12:52:32.585Z,4.25
2018-08-20T12:55:01.081Z,4.15
2018-08-20T12:57:29.629Z,4.08
2018-08-20T12:59:59.081Z,4.30
2018-08-20T13:02:27.945Z,4.17
2018-08-20T13:04:56.963Z,4.28
2018-08-20T13:07:25.410Z,4.40
2018-08-20T13:09:53.884Z,4.70
2018-08-20T13:12:22.402Z,4.87
2018-08-20T13:14:50.966Z,4.75
2018-08-20T13:17:19.419Z,4.53
2018-08-20T13:19:47.967Z,4.00
2018-08-20T13:22:16.516Z,3.77
2018-08-20T13:24:45.018Z,4.55
2018-08-20T13:27:13.568Z,4.10
2018-08-20T13:29:42.240Z,4.30
2018-08-20T13:32:10.845Z,4.85
2018-08-20T13:34:39.406Z,3.50
2018-08-20T13:37:07.907Z,4.62
2018-08-20T13:39:36.452Z,3.70
2018-08-20T13:42:05.050Z,4.50
2018-08-20T13:44:33.569Z,4.08
2018-08-20T13:47:02.068Z,4.80
2018-08-20T13:49:30.580Z,4.83
2018-08-20T13:51:59.102Z,4.47
2018-08-20T13:54:27.566Z,4.25
2018-08-20T13:56:56.095Z,3.77
2018-08-20T13:59:24.645Z,4.65
2018-08-20T14:01:53.244Z,4.30
2018-08-20T14:04:21.777Z,4.67
2018-08-20T14:06:50.262Z,4.60
2018-08-20T14:09:18.906Z,5.60
2018-08-20T14:11:49.074Z,5.35
2018-08-20T14:14:17.653Z,4.70
2018-08-20T14:16:46.192Z,5.17
2018-08-20T14:19:14.860Z,4.40
2018-08-20T14:21:43.485Z,5.80
2018-08-20T14:24:12.145Z,4.25
2018-08-20T14:26:40.619Z,4.35
2018-08-20T14:29:09.264Z,5.00
2018-08-20T14:31:38.866Z,5.67
2018-08-20T14:34:07.302Z,5.00
2018-08-20T14:36:35.817Z,4.47
2018-08-20T14:39:05.191Z,4.25
2018-08-20T14:41:33.706Z,4.60
2018-08-20T14:44:02.154Z,4.40
2018-08-20T14:46:30.663Z,4.22
2018-08-20T14:48:59.313Z,4.03
2018-08-20T14:51:27.865Z,4.30
2018-08-20T14:53:56.346Z,4.40
2018-08-20T14:56:24.890Z,4.08
2018-08-20T14:58:53.327Z,4.10
2018-08-20T15:01:21.842Z,4.40
2018-08-20T15:03:50.334Z,4.00
2018-08-20T15:06:18.861Z,3.85
2018-08-20T15:08:47.332Z,4.20
2018-08-20T15:11:15.833Z,5.03
2018-08-20T15:13:44.262Z,4.40
2018-08-20T15:16:12.747Z,4.33
2018-08-20T15:18:41.219Z,4.28
2018-08-20T15:21:09.738Z,4.45
2018-08-20T15:23:38.173Z,4.33
2018-08-20T15:26:06.694Z,4.22
2018-08-20T15:28:35.179Z,4.25
2018-08-20T15:31:03.711Z,4.17
2018-08-20T15:33:32.286Z,4.35
2018-08-20T15:36:00.755Z,3.87
2018-08-20T15:38:29.194Z,3.98
2018-08-20T15:40:57.689Z,4.40
2018-08-20T15:43:26.216Z,3.58
2018-08-20T15:45:54.688Z,4.33
2018-08-20T15:48:23.136Z,3.77
2018-08-20T15:50:51.650Z,3.98
2018-08-20T15:53:20.136Z,3.65
2018-08-20T15:55:48.647Z,4.20
2018-08-20T15:58:17.147Z,4.00
2018-08-20T16:00:46.092Z,3.98
2018-08-20T16:03:14.628Z,3.95
2018-08-20T16:05:43.257Z,3.62
2018-08-20T16:08:11.775Z,3.62
2018-08-20T16:10:40.231Z,4.25
2018-08-20T16:13:08.719Z,4.20
2018-08-20T16:15:37.487Z,3.62
2018-08-20T16:18:06.135Z,3.77
2018-08-20T16:20:34.623Z,3.90
2018-08-20T16:23:03.249Z,4.12
2018-08-20T16:25:31.700Z,3.80
2018-08-20T16:28:00.300Z,3.95
2018-08-20T16:30:28.796Z,3.45
2018-08-20T16:32:57.330Z,3.72
2018-08-20T16:35:25.866Z,3.50
2018-08-20T16:37:54.524Z,3.80
2018-08-20T16:40:23.026Z,3.83
2018-08-20T16:42:51.521Z,3.47
2018-08-20T16:45:19.998Z,3.17
2018-08-20T16:47:49.025Z,3.55
2018-08-20T16:50:17.587Z,3.42
2018-08-20T16:52:46.135Z,3.70
2018-08-20T16:55:14.647Z,3.47
2018-08-20T16:57:43.213Z,3.55
2018-08-20T17:00:12.658Z,3.65
2018-08-20T17:02:42.189Z,3.77
2018-08-20T17:05:12.181Z,3.45
2018-08-20T17:07:41.054Z,3.60
2018-08-20T17:10:11.150Z,3.87
2018-08-20T17:12:40.085Z,3.47
2018-08-20T17:15:12.926Z,3.30
2018-08-20T17:17:41.497Z,3.35
2018-08-20T17:20:11.315Z,3.12
2018-08-20T17:22:41.273Z,3.52
2018-08-20T17:25:09.873Z,3.25
2018-08-20T17:27:38.409Z,2.98
2018-08-20T17:30:08.492Z,2.95
2018-08-20T17:32:36.986Z,3.33
2018-08-20T17:35:07.682Z,3.37
2018-08-20T17:37:36.202Z,3.02
2018-08-20T17:40:08.314Z,5.60
2018-08-20T17:42:36.816Z,6.90
2018-08-20T17:45:06.435Z,5.20
2018-08-20T17:47:40.089Z,3.62
2018-08-20T17:50:24.967Z,3.12
2018-08-20T17:52:53.581Z,3.05
2018-08-20T17:55:22.125Z,3.10
2018-08-20T17:57:50.675Z,3.17
2018-08-20T18:00:28.742Z,3.22
2018-08-20T18:02:57.402Z,2.67
2018-08-20T18:05:26.210Z,3.00
2018-08-20T18:07:54.966Z,2.72
2018-08-20T18:10:23.447Z,2.80
2018-08-20T18:12:51.980Z,2.95
2018-08-20T18:15:20.453Z,2.95
2018-08-20T18:17:48.953Z,2.90
2018-08-20T18:20:17.430Z,2.90
2018-08-20T18:22:45.939Z,2.85
2018-08-20T18:25:14.396Z,3.15
2018-08-20T18:27:43.570Z,2.98
2018-08-20T18:30:13.065Z,3.10
2018-08-20T18:32:41.604Z,2.87
2018-08-20T18:35:10.125Z,2.85
2018-08-20T18:37:42.890Z,3.25
2018-08-20T18:40:11.479Z,3.30
2018-08-20T18:42:45.191Z,3.65
2018-08-20T18:48:20.423Z,3.65
2018-08-20T18:50:58.843Z,4.28
2018-08-20T18:53:31.628Z,3.80
2018-08-20T18:56:03.950Z,3.33
2018-08-20T18:58:33.099Z,3.92
2018-08-20T19:01:01.554Z,4.42
2018-08-20T19:03:35.446Z,3.75
2018-08-20T19:06:04.176Z,4.80
2018-08-20T19:08:32.740Z,4.33
2018-08-20T19:11:01.319Z,3.85
2018-08-20T19:13:29.822Z,4.35
2018-08-20T19:15:58.324Z,4.37
2018-08-20T19:18:32.144Z,4.15
2018-08-20T19:21:00.698Z,4.60
2018-08-20T19:23:29.189Z,4.75
2018-08-20T19:25:57.691Z,4.25
2018-08-20T19:28:26.228Z,4.65
2018-08-20T19:30:55.730Z,4.33
2018-08-20T19:33:26.713Z,4.43
2018-08-20T19:35:55.818Z,4.17
2018-08-20T19:38:24.836Z,4.30
2018-08-20T19:41:01.905Z,4.37
2018-08-20T19:43:35.828Z,4.75
2018-08-20T19:46:04.332Z,4.27
2018-08-20T19:48:32.823Z,4.00
2018-08-20T19:51:02.671Z,4.67
2018-08-20T19:53:31.132Z,4.40
2018-08-20T19:55:59.848Z,4.12
2018-08-20T19:58:34.218Z,4.53
2018-08-20T20:01:09.068Z,4.17
2018-08-20T20:03:40.589Z,4.25
2018-08-20T20:06:09.143Z,4.47
2018-08-20T20:08:37.689Z,4.23
2018-08-20T20:11:14.210Z,4.80
2018-08-20T20:13:42.842Z,4.30
2018-08-20T20:16:11.294Z,4.60
2018-08-20T20:18:39.783Z,5.20
2018-08-20T20:21:08.291Z,4.00
2018-08-20T20:23:36.805Z,4.30
2018-08-20T20:26:05.314Z,4.17
2018-08-20T20:28:33.790Z,4.13
2018-08-20T20:31:02.345Z,4.20
2018-08-20T20:33:30.862Z,4.30
2018-08-20T20:35:59.396Z,4.00
2018-08-20T20:38:27.958Z,3.87
2018-08-20T20:40:56.426Z,4.50
2018-08-20T20:43:29.154Z,3.93
2018-08-20T20:45:57.806Z,4.27
2018-08-20T20:48:26.307Z,3.83
2018-08-20T20:50:54.800Z,4.20
2018-08-20T20:53:23.285Z,4.50
2018-08-20T20:55:51.805Z,4.87
2018-08-20T20:58:25.364Z,4.63
2018-08-20T21:00:53.841Z,4.30
2018-08-20T21:03:22.334Z,4.60
2018-08-20T21:05:50.845Z,4.63
2018-08-20T21:08:19.365Z,5.08
2018-08-20T21:10:50.575Z,4.43
2018-08-20T21:13:28.644Z,4.47
2018-08-20T21:16:28.645Z,4.47
2018-08-20T21:18:57.770Z,4.37
2018-08-20T21:21:26.988Z,4.67
2018-08-20T21:23:56.669Z,4.70
2018-08-20T21:27:03.303Z,4.70
2018-08-20T21:29:36.964Z,4.50
2018-08-20T21:32:07.006Z,5.17
2018-08-20T21:34:40.021Z,4.70
2018-08-20T21:37:12.668Z,4.50
2018-08-20T21:39:42.109Z,4.47
2018-08-20T21:42:11.618Z,4.77
2018-08-20T21:44:40.886Z,5.17
2018-08-20T21:47:21.681Z,4.63
2018-08-20T21:49:50.571Z,4.43
2018-08-20T21:52:19.031Z,4.70
2018-08-20T21:54:47.496Z,4.60
2018-08-20T21:57:15.988Z,4.47
2018-08-20T21:59:55.504Z,4.33
2018-08-20T22:02:27.704Z,4.80
2018-08-20T22:04:56.187Z,4.77
2018-08-20T22:07:24.656Z,5.23
2018-08-20T22:09:53.199Z,4.67
2018-08-20T22:12:21.743Z,4.90
2018-08-20T22:14:50.285Z,5.57
2018-08-20T22:17:24.063Z,5.00
2018-08-20T22:19:52.615Z,4.67
2018-08-20T22:22:23.223Z,4.70
2018-08-20T22:24:56.685Z,4.33
2018-08-20T22:27:25.743Z,5.00
2018-08-20T22:29:54.210Z,4.43
2018-08-20T22:32:22.739Z,5.00
2018-08-20T22:34:51.204Z,5.20
2018-08-20T22:37:19.723Z,4.70
2018-08-20T22:39:53.893Z,4.50
2018-08-20T22:42:43.842Z,5.73
2018-08-20T22:45:14.533Z,5.00
2018-08-20T22:47:43.221Z,4.43
2018-08-20T22:50:11.749Z,4.47
2018-08-20T22:52:42.935Z,4.47
2018-08-20T22:55:12.351Z,4.93
2018-08-20T22:58:14.599Z,4.47
2018-08-20T23:00:43.096Z,4.80
2018-08-20T23:03:11.529Z,4.77
2018-08-20T23:05:40.072Z,4.70
2018-08-20T23:08:13.770Z,5.53
2018-08-20T23:10:43.461Z,4.53
2018-08-20T23:13:12.004Z,4.33
2018-08-20T23:15:40.554Z,4.80
2018-08-20T23:18:09.149Z,5.30
2018-08-20T23:20:37.641Z,5.43
2018-08-20T23:23:06.123Z,5.57
2018-08-20T23:25:34.627Z,4.80
2018-08-20T23:28:03.094Z,5.07
2018-08-20T23:30:31.553Z,5.13
2018-08-20T23:33:00.011Z,5.20
2018-08-20T23:35:28.482Z,5.50
2018-08-20T23:37:56.925Z,5.27
2018-08-20T23:40:25.438Z,5.23
2018-08-20T23:42:53.867Z,5.23
2018-08-20T23:45:22.580Z,5.13
2018-08-20T23:47:51.016Z,5.00
2018-08-20T23:50:19.501Z,5.67
2018-08-20T23:52:47.992Z,6.00
2018-08-20T23:55:16.516Z,5.60
2018-08-20T23:57:44.950Z,5.30
